sensor_id;sensor_type;location;lat;lon;timestamp;P1;durP1;ratioP1;P2;durP2;ratioP2
75626;SDS011;67372;49.404;11.034;2024-01-30T00:02:16;15.57;;;7.38;;
75626;SDS011;67372;49.404;11.034;2024-01-30T00:04:42;15.75;;;6.85;;
75626;SDS011;67372;49.404;11.034;2024-01-30T00:07:09;14.30;;;6.97;;
75626;SDS011;67372;49.404;11.034;2024-01-30T00:09:35;11.80;;;6.22;;
75626;SDS011;67372;49.404;11.034;2024-01-30T00:12:02;12.50;;;6.43;;
75626;SDS011;67372;49.404;11.034;2024-01-30T00:14:28;14.70;;;6.32;;
75626;SDS011;67372;49.404;11.034;2024-01-30T00:16:55;11.18;;;5.95;;
75626;SDS011;67372;49.404;11.034;2024-01-30T00:19:21;10.95;;;6.03;;
75626;SDS011;67372;49.404;11.034;2024-01-30T00:21:47;14.10;;;6.35;;
75626;SDS011;67372;49.404;11.034;2024-01-30T00:24:14;11.88;;;5.60;;
75626;SDS011;67372;49.404;11.034;2024-01-30T00:26:40;11.18;;;5.55;;
75626;SDS011;67372;49.404;11.034;2024-01-30T00:29:07;13.20;;;6.00;;
75626;SDS011;67372;49.404;11.034;2024-01-30T00:31:33;11.63;;;5.53;;
75626;SDS011;67372;49.404;11.034;2024-01-30T00:34:00;12.05;;;5.50;;
75626;SDS011;67372;49.404;11.034;2024-01-30T00:36:26;13.60;;;5.15;;
75626;SDS011;67372;49.404;11.034;2024-01-30T00:38:52;10.30;;;5.18;;
75626;SDS011;67372;49.404;11.034;2024-01-30T00:41:19;13.50;;;5.47;;
75626;SDS011;67372;49.404;11.034;2024-01-30T00:43:45;15.52;;;5.95;;
75626;SDS011;67372;49.404;11.034;2024-01-30T00:46:12;11.48;;;5.32;;
75626;SDS011;67372;49.404;11.034;2024-01-30T00:48:38;10.23;;;5.65;;
75626;SDS011;67372;49.404;11.034;2024-01-30T00:51:05;12.05;;;5.55;;
75626;SDS011;67372;49.404;11.034;2024-01-30T00:53:31;12.43;;;6.25;;
75626;SDS011;67372;49.404;11.034;2024-01-30T00:55:57;11.65;;;5.82;;
75626;SDS011;67372;49.404;11.034;2024-01-30T00:58:24;14.38;;;6.03;;
75626;SDS011;67372;49.404;11.034;2024-01-30T01:00:50;13.35;;;5.20;;
75626;SDS011;67372;49.404;11.034;2024-01-30T01:03:17;13.25;;;5.80;;
75626;SDS011;67372;49.404;11.034;2024-01-30T01:05:43;15.38;;;6.22;;
75626;SDS011;67372;49.404;11.034;2024-01-30T01:08:10;10.75;;;5.20;;
75626;SDS011;67372;49.404;11.034;2024-01-30T01:10:36;11.00;;;5.32;;
75626;SDS011;67372;49.404;11.034;2024-01-30T01:13:02;9.27;;;5.07;;
75626;SDS011;67372;49.404;11.034;2024-01-30T01:15:29;15.00;;;6.10;;
75626;SDS011;67372;49.404;11.034;2024-01-30T01:17:56;9.55;;;4.82;;
75626;SDS011;67372;49.404;11.034;2024-01-30T01:20:22;11.93;;;5.32;;
75626;SDS011;67372;49.404;11.034;2024-01-30T01:22:49;10.07;;;5.05;;
75626;SDS011;67372;49.404;11.034;2024-01-30T01:25:15;10.90;;;5.43;;
75626;SDS011;67372;49.404;11.034;2024-01-30T01:27:42;13.20;;;5.20;;
75626;SDS011;67372;49.404;11.034;2024-01-30T01:30:09;10.35;;;4.88;;
75626;SDS011;67372;49.404;11.034;2024-01-30T01:37:30;8.70;;;4.03;;
75626;SDS011;67372;49.404;11.034;2024-01-30T01:39:56;9.73;;;4.68;;
75626;SDS011;67372;49.404;11.034;2024-01-30T01:42:23;7.30;;;4.32;;
75626;SDS011;67372;49.404;11.034;2024-01-30T01:44:49;8.35;;;3.80;;
75626;SDS011;67372;49.404;11.034;2024-01-30T01:47:15;12.25;;;4.63;;
75626;SDS011;67372;49.404;11.034;2024-01-30T01:49:42;13.38;;;5.15;;
75626;SDS011;67372;49.404;11.034;2024-01-30T01:52:08;10.90;;;4.82;;
75626;SDS011;67372;49.404;11.034;2024-01-30T01:54:35;8.40;;;4.55;;
75626;SDS011;67372;49.404;11.034;2024-01-30T01:57:02;8.77;;;4.07;;
75626;SDS011;67372;49.404;11.034;2024-01-30T01:59:29;9.55;;;4.32;;
75626;SDS011;67372;49.404;11.034;2024-01-30T02:01:56;9.63;;;4.70;;
75626;SDS011;67372;49.404;11.034;2024-01-30T02:04:23;9.38;;;4.85;;
75626;SDS011;67372;49.404;11.034;2024-01-30T02:06:49;9.20;;;4.13;;
75626;SDS011;67372;49.404;11.034;2024-01-30T02:09:16;8.18;;;4.15;;
75626;SDS011;67372;49.404;11.034;2024-01-30T02:11:42;9.38;;;4.72;;
75626;SDS011;67372;49.404;11.034;2024-01-30T02:14:09;9.35;;;4.82;;
75626;SDS011;67372;49.404;11.034;2024-01-30T02:16:35;9.55;;;4.25;;
75626;SDS011;67372;49.404;11.034;2024-01-30T02:19:02;10.55;;;5.25;;
75626;SDS011;67372;49.404;11.034;2024-01-30T02:21:28;11.00;;;4.65;;
75626;SDS011;67372;49.404;11.034;2024-01-30T02:23:54;12.52;;;4.90;;
75626;SDS011;67372;49.404;11.034;2024-01-30T02:26:21;10.45;;;5.35;;
75626;SDS011;67372;49.404;11.034;2024-01-30T02:28:47;9.77;;;4.70;;
75626;SDS011;67372;49.404;11.034;2024-01-30T02:31:14;8.52;;;4.60;;
75626;SDS011;67372;49.404;11.034;2024-01-30T02:33:40;9.00;;;4.57;;
75626;SDS011;67372;49.404;11.034;2024-01-30T02:36:07;11.65;;;5.30;;
75626;SDS011;67372;49.404;11.034;2024-01-30T02:38:33;10.02;;;4.53;;
75626;SDS011;67372;49.404;11.034;2024-01-30T02:40:59;9.85;;;4.28;;
75626;SDS011;67372;49.404;11.034;2024-01-30T02:43:26;9.80;;;5.10;;
75626;SDS011;67372;49.404;11.034;2024-01-30T02:45:52;9.48;;;4.28;;
75626;SDS011;67372;49.404;11.034;2024-01-30T02:48:19;9.73;;;4.43;;
75626;SDS011;67372;49.404;11.034;2024-01-30T02:50:45;10.88;;;5.13;;
75626;SDS011;67372;49.404;11.034;2024-01-30T02:53:12;10.00;;;5.20;;
75626;SDS011;67372;49.404;11.034;2024-01-30T02:55:38;12.18;;;4.90;;
75626;SDS011;67372;49.404;11.034;2024-01-30T02:58:04;11.05;;;4.22;;
75626;SDS011;67372;49.404;11.034;2024-01-30T03:00:31;13.13;;;5.35;;
75626;SDS011;67372;49.404;11.034;2024-01-30T03:02:57;11.90;;;4.97;;
75626;SDS011;67372;49.404;11.034;2024-01-30T03:05:24;9.95;;;4.63;;
75626;SDS011;67372;49.404;11.034;2024-01-30T03:07:50;9.85;;;4.85;;
75626;SDS011;67372;49.404;11.034;2024-01-30T03:10:17;7.95;;;4.63;;
75626;SDS011;67372;49.404;11.034;2024-01-30T03:12:43;12.95;;;5.30;;
75626;SDS011;67372;49.404;11.034;2024-01-30T03:15:09;10.82;;;4.63;;
75626;SDS011;67372;49.404;11.034;2024-01-30T03:17:36;10.10;;;4.95;;
75626;SDS011;67372;49.404;11.034;2024-01-30T03:20:03;9.93;;;4.75;;
75626;SDS011;67372;49.404;11.034;2024-01-30T03:22:30;8.82;;;4.65;;
75626;SDS011;67372;49.404;11.034;2024-01-30T03:24:57;9.95;;;4.82;;
75626;SDS011;67372;49.404;11.034;2024-01-30T03:27:23;9.93;;;4.90;;
75626;SDS011;67372;49.404;11.034;2024-01-30T03:29:49;11.13;;;5.10;;
75626;SDS011;67372;49.404;11.034;2024-01-30T03:32:16;9.52;;;4.40;;
75626;SDS011;67372;49.404;11.034;2024-01-30T03:34:42;10.20;;;4.45;;
75626;SDS011;67372;49.404;11.034;2024-01-30T03:37:09;9.15;;;4.63;;
75626;SDS011;67372;49.404;11.034;2024-01-30T03:39:35;11.65;;;4.97;;
75626;SDS011;67372;49.404;11.034;2024-01-30T03:42:01;10.77;;;4.93;;
75626;SDS011;67372;49.404;11.034;2024-01-30T03:44:28;11.73;;;4.80;;
75626;SDS011;67372;49.404;11.034;2024-01-30T03:46:54;9.45;;;4.68;;
75626;SDS011;67372;49.404;11.034;2024-01-30T03:49:21;8.88;;;4.32;;
75626;SDS011;67372;49.404;11.034;2024-01-30T03:51:47;10.73;;;5.22;;
75626;SDS011;67372;49.404;11.034;2024-01-30T03:54:14;9.77;;;5.28;;
75626;SDS011;67372;49.404;11.034;2024-01-30T03:56:40;10.38;;;5.28;;
75626;SDS011;67372;49.404;11.034;2024-01-30T03:59:07;11.57;;;5.25;;
75626;SDS011;67372;49.404;11.034;2024-01-30T04:01:33;11.00;;;5.55;;
75626;SDS011;67372;49.404;11.034;2024-01-30T04:04:00;8.10;;;5.13;;
75626;SDS011;67372;49.404;11.034;2024-01-30T04:06:26;10.82;;;5.13;;
75626;SDS011;67372;49.404;11.034;2024-01-30T04:08:53;12.00;;;5.00;;
75626;SDS011;67372;49.404;11.034;2024-01-30T04:11:19;9.57;;;4.32;;
75626;SDS011;67372;49.404;11.034;2024-01-30T04:13:45;9.35;;;5.05;;
75626;SDS011;67372;49.404;11.034;2024-01-30T04:16:21;10.73;;;5.00;;
75626;SDS011;67372;49.404;11.034;2024-01-30T04:18:49;14.25;;;5.65;;
75626;SDS011;67372;49.404;11.034;2024-01-30T04:21:15;10.05;;;5.85;;
75626;SDS011;67372;49.404;11.034;2024-01-30T04:23:42;11.02;;;4.97;;
75626;SDS011;67372;49.404;11.034;2024-01-30T04:26:08;8.52;;;4.65;;
75626;SDS011;67372;49.404;11.034;2024-01-30T04:28:35;9.80;;;5.07;;
75626;SDS011;67372;49.404;11.034;2024-01-30T04:31:01;7.72;;;4.03;;
75626;SDS011;67372;49.404;11.034;2024-01-30T04:33:27;11.15;;;4.82;;
75626;SDS011;67372;49.404;11.034;2024-01-30T04:35:54;9.40;;;5.10;;
75626;SDS011;67372;49.404;11.034;2024-01-30T04:38:21;9.82;;;5.32;;
75626;SDS011;67372;49.404;11.034;2024-01-30T04:40:47;12.43;;;4.95;;
75626;SDS011;67372;49.404;11.034;2024-01-30T04:43:13;10.55;;;5.78;;
75626;SDS011;67372;49.404;11.034;2024-01-30T04:45:40;9.30;;;5.25;;
75626;SDS011;67372;49.404;11.034;2024-01-30T04:48:07;10.55;;;4.78;;
75626;SDS011;67372;49.404;11.034;2024-01-30T04:50:33;9.73;;;5.47;;
75626;SDS011;67372;49.404;11.034;2024-01-30T04:53:00;10.07;;;4.85;;
75626;SDS011;67372;49.404;11.034;2024-01-30T04:55:26;9.48;;;4.65;;
75626;SDS011;67372;49.404;11.034;2024-01-30T04:57:52;10.10;;;5.50;;
75626;SDS011;67372;49.404;11.034;2024-01-30T05:00:19;9.82;;;5.30;;
75626;SDS011;67372;49.404;11.034;2024-01-30T05:02:45;10.48;;;5.53;;
75626;SDS011;67372;49.404;11.034;2024-01-30T05:05:12;11.77;;;5.55;;
75626;SDS011;67372;49.404;11.034;2024-01-30T05:07:41;11.63;;;4.85;;
75626;SDS011;67372;49.404;11.034;2024-01-30T05:10:07;8.65;;;5.18;;
75626;SDS011;67372;49.404;11.034;2024-01-30T05:12:34;10.57;;;4.95;;
75626;SDS011;67372;49.404;11.034;2024-01-30T05:15:01;11.60;;;5.55;;
75626;SDS011;67372;49.404;11.034;2024-01-30T05:17:28;11.77;;;5.60;;
75626;SDS011;67372;49.404;11.034;2024-01-30T05:19:54;10.32;;;5.68;;
75626;SDS011;67372;49.404;11.034;2024-01-30T05:22:21;14.63;;;5.78;;
75626;SDS011;67372;49.404;11.034;2024-01-30T05:24:47;12.05;;;6.05;;
75626;SDS011;67372;49.404;11.034;2024-01-30T05:27:14;14.93;;;5.85;;
75626;SDS011;67372;49.404;11.034;2024-01-30T05:29:40;13.20;;;6.65;;
75626;SDS011;67372;49.404;11.034;2024-01-30T05:32:06;15.70;;;6.43;;
75626;SDS011;67372;49.404;11.034;2024-01-30T05:34:33;12.48;;;6.57;;
75626;SDS011;67372;49.404;11.034;2024-01-30T05:36:59;12.98;;;6.55;;
75626;SDS011;67372;49.404;11.034;2024-01-30T05:39:26;12.02;;;6.82;;
75626;SDS011;67372;49.404;11.034;2024-01-30T05:41:52;12.07;;;6.60;;
75626;SDS011;67372;49.404;11.034;2024-01-30T05:44:18;12.70;;;5.95;;
75626;SDS011;67372;49.404;11.034;2024-01-30T05:46:45;17.25;;;7.03;;
75626;SDS011;67372;49.404;11.034;2024-01-30T05:49:11;10.65;;;5.82;;
75626;SDS011;67372;49.404;11.034;2024-01-30T05:51:38;14.00;;;6.78;;
75626;SDS011;67372;49.404;11.034;2024-01-30T05:54:04;15.32;;;7.35;;
75626;SDS011;67372;49.404;11.034;2024-01-30T05:56:30;14.15;;;6.60;;
75626;SDS011;67372;49.404;11.034;2024-01-30T05:58:57;12.65;;;6.53;;
75626;SDS011;67372;49.404;11.034;2024-01-30T06:01:23;14.10;;;6.85;;
75626;SDS011;67372;49.404;11.034;2024-01-30T06:03:50;17.92;;;8.00;;
75626;SDS011;67372;49.404;11.034;2024-01-30T06:06:16;15.07;;;6.47;;
75626;SDS011;67372;49.404;11.034;2024-01-30T06:08:43;13.75;;;6.63;;
75626;SDS011;67372;49.404;11.034;2024-01-30T06:11:10;13.25;;;6.50;;
75626;SDS011;67372;49.404;11.034;2024-01-30T06:16:03;14.32;;;6.95;;
75626;SDS011;67372;49.404;11.034;2024-01-30T06:18:30;16.27;;;7.60;;
75626;SDS011;67372;49.404;11.034;2024-01-30T06:20:56;15.18;;;7.70;;
75626;SDS011;67372;49.404;11.034;2024-01-30T06:23:23;15.43;;;6.25;;
75626;SDS011;67372;49.404;11.034;2024-01-30T06:25:49;19.08;;;6.88;;
75626;SDS011;67372;49.404;11.034;2024-01-30T06:28:16;19.98;;;7.72;;
75626;SDS011;67372;49.404;11.034;2024-01-30T06:30:42;18.02;;;8.60;;
75626;SDS011;67372;49.404;11.034;2024-01-30T06:33:11;20.35;;;9.45;;
75626;SDS011;67372;49.404;11.034;2024-01-30T06:35:38;15.35;;;7.18;;
75626;SDS011;67372;49.404;11.034;2024-01-30T06:38:07;15.80;;;6.82;;
75626;SDS011;67372;49.404;11.034;2024-01-30T06:40:33;15.45;;;7.22;;
75626;SDS011;67372;49.404;11.034;2024-01-30T06:43:00;14.90;;;7.35;;
75626;SDS011;67372;49.404;11.034;2024-01-30T06:45:27;22.05;;;9.18;;
75626;SDS011;67372;49.404;11.034;2024-01-30T06:47:53;35.33;;;13.45;;
75626;SDS011;67372;49.404;11.034;2024-01-30T06:50:19;26.75;;;11.88;;
75626;SDS011;67372;49.404;11.034;2024-01-30T06:52:46;22.98;;;10.68;;
75626;SDS011;67372;49.404;11.034;2024-01-30T06:55:12;25.77;;;10.05;;
75626;SDS011;67372;49.404;11.034;2024-01-30T06:57:39;31.65;;;12.40;;
75626;SDS011;67372;49.404;11.034;2024-01-30T07:00:06;17.20;;;7.75;;
75626;SDS011;67372;49.404;11.034;2024-01-30T07:02:32;16.48;;;7.85;;
75626;SDS011;67372;49.404;11.034;2024-01-30T07:04:59;15.00;;;7.18;;
75626;SDS011;67372;49.404;11.034;2024-01-30T07:07:25;16.80;;;7.25;;
75626;SDS011;67372;49.404;11.034;2024-01-30T07:09:52;14.13;;;7.43;;
75626;SDS011;67372;49.404;11.034;2024-01-30T07:12:18;14.55;;;7.47;;
75626;SDS011;67372;49.404;11.034;2024-01-30T07:14:45;15.32;;;7.35;;
75626;SDS011;67372;49.404;11.034;2024-01-30T07:17:11;17.15;;;7.28;;
75626;SDS011;67372;49.404;11.034;2024-01-30T07:19:38;19.42;;;7.35;;
75626;SDS011;67372;49.404;11.034;2024-01-30T07:22:04;15.88;;;7.05;;
75626;SDS011;67372;49.404;11.034;2024-01-30T07:24:31;13.82;;;7.60;;
75626;SDS011;67372;49.404;11.034;2024-01-30T07:26:57;16.05;;;8.38;;
75626;SDS011;67372;49.404;11.034;2024-01-30T07:29:24;13.65;;;7.28;;
75626;SDS011;67372;49.404;11.034;2024-01-30T07:31:50;15.30;;;7.60;;
75626;SDS011;67372;49.404;11.034;2024-01-30T07:34:17;16.77;;;7.13;;
75626;SDS011;67372;49.404;11.034;2024-01-30T07:36:43;15.70;;;8.05;;
75626;SDS011;67372;49.404;11.034;2024-01-30T07:39:09;14.25;;;7.22;;
75626;SDS011;67372;49.404;11.034;2024-01-30T07:41:36;15.50;;;8.30;;
75626;SDS011;67372;49.404;11.034;2024-01-30T07:44:02;16.30;;;8.32;;
75626;SDS011;67372;49.404;11.034;2024-01-30T07:46:29;15.95;;;8.73;;
75626;SDS011;67372;49.404;11.034;2024-01-30T07:48:55;14.15;;;7.25;;
75626;SDS011;67372;49.404;11.034;2024-01-30T09:36:51;17.25;;;8.95;;
75626;SDS011;67372;49.404;11.034;2024-01-30T09:39:18;16.73;;;8.90;;
75626;SDS011;67372;49.404;11.034;2024-01-30T09:41:45;14.68;;;8.55;;
75626;SDS011;67372;49.404;11.034;2024-01-30T09:44:17;17.35;;;9.18;;
75626;SDS011;67372;49.404;11.034;2024-01-30T09:46:46;16.35;;;9.10;;
75626;SDS011;67372;49.404;11.034;2024-01-30T09:49:13;19.63;;;9.18;;
75626;SDS011;67372;49.404;11.034;2024-01-30T09:51:42;17.60;;;9.88;;
75626;SDS011;67372;49.404;11.034;2024-01-30T09:54:09;19.92;;;10.20;;
75626;SDS011;67372;49.404;11.034;2024-01-30T09:56:36;17.17;;;9.27;;
75626;SDS011;67372;49.404;11.034;2024-01-30T09:59:03;22.75;;;11.13;;
75626;SDS011;67372;49.404;11.034;2024-01-30T10:01:29;19.65;;;10.20;;
75626;SDS011;67372;49.404;11.034;2024-01-30T10:03:57;17.33;;;9.38;;
75626;SDS011;67372;49.404;11.034;2024-01-30T10:06:24;16.05;;;8.82;;
75626;SDS011;67372;49.404;11.034;2024-01-30T10:08:51;17.15;;;9.15;;
75626;SDS011;67372;49.404;11.034;2024-01-30T10:11:18;15.75;;;8.48;;
75626;SDS011;67372;49.404;11.034;2024-01-30T10:13:44;17.00;;;9.32;;
75626;SDS011;67372;49.404;11.034;2024-01-30T10:16:10;17.00;;;9.65;;
75626;SDS011;67372;49.404;11.034;2024-01-30T10:18:41;16.02;;;8.30;;
75626;SDS011;67372;49.404;11.034;2024-01-30T10:21:10;15.52;;;9.43;;
75626;SDS011;67372;49.404;11.034;2024-01-30T10:23:37;17.85;;;9.43;;
75626;SDS011;67372;49.404;11.034;2024-01-30T10:26:07;16.80;;;9.30;;
75626;SDS011;67372;49.404;11.034;2024-01-30T10:28:34;17.20;;;8.80;;
75626;SDS011;67372;49.404;11.034;2024-01-30T10:31:00;17.70;;;9.18;;
75626;SDS011;67372;49.404;11.034;2024-01-30T10:33:31;16.40;;;8.93;;
75626;SDS011;67372;49.404;11.034;2024-01-30T10:36:04;15.98;;;9.25;;
75626;SDS011;67372;49.404;11.034;2024-01-30T10:38:32;18.70;;;9.95;;
75626;SDS011;67372;49.404;11.034;2024-01-30T10:41:02;23.55;;;10.98;;
75626;SDS011;67372;49.404;11.034;2024-01-30T10:43:33;17.38;;;9.68;;
75626;SDS011;67372;49.404;11.034;2024-01-30T10:46:17;16.17;;;8.70;;
75626;SDS011;67372;49.404;11.034;2024-01-30T10:48:47;17.92;;;9.63;;
75626;SDS011;67372;49.404;11.034;2024-01-30T10:51:23;15.00;;;9.10;;
75626;SDS011;67372;49.404;11.034;2024-01-30T10:53:50;14.70;;;9.50;;
75626;SDS011;67372;49.404;11.034;2024-01-30T11:01:33;14.27;;;8.50;;
75626;SDS011;67372;49.404;11.034;2024-01-30T11:06:43;15.05;;;9.05;;
75626;SDS011;67372;49.404;11.034;2024-01-30T11:09:12;16.55;;;9.27;;
75626;SDS011;67372;49.404;11.034;2024-01-30T11:11:51;15.82;;;9.10;;
75626;SDS011;67372;49.404;11.034;2024-01-30T11:14:25;18.80;;;10.15;;
75626;SDS011;67372;49.404;11.034;2024-01-30T11:16:52;20.00;;;10.93;;
75626;SDS011;67372;49.404;11.034;2024-01-30T11:19:25;18.13;;;9.57;;
75626;SDS011;67372;49.404;11.034;2024-01-30T11:21:52;16.23;;;9.05;;
75626;SDS011;67372;49.404;11.034;2024-01-30T11:24:20;17.05;;;9.88;;
75626;SDS011;67372;49.404;11.034;2024-01-30T11:26:54;16.60;;;9.23;;
75626;SDS011;67372;49.404;11.034;2024-01-30T11:29:25;15.32;;;9.18;;
75626;SDS011;67372;49.404;11.034;2024-01-30T11:31:53;15.18;;;9.02;;
75626;SDS011;67372;49.404;11.034;2024-01-30T13:16:33;14.15;;;8.57;;
75626;SDS011;67372;49.404;11.034;2024-01-30T13:29:40;14.15;;;8.18;;
75626;SDS011;67372;49.404;11.034;2024-01-30T13:59:01;14.98;;;8.80;;
75626;SDS011;67372;49.404;11.034;2024-01-30T14:04:08;14.90;;;9.07;;
75626;SDS011;67372;49.404;11.034;2024-01-30T14:06:38;15.23;;;8.57;;
75626;SDS011;67372;49.404;11.034;2024-01-30T14:54:48;14.35;;;8.73;;
75626;SDS011;67372;49.404;11.034;2024-01-30T15:05:20;19.80;;;10.82;;
75626;SDS011;67372;49.404;11.034;2024-01-30T15:07:47;18.63;;;9.68;;
75626;SDS011;67372;49.404;11.034;2024-01-30T15:10:13;16.85;;;9.85;;
75626;SDS011;67372;49.404;11.034;2024-01-30T15:12:40;13.98;;;9.15;;
75626;SDS011;67372;49.404;11.034;2024-01-30T15:15:07;17.55;;;10.05;;
75626;SDS011;67372;49.404;11.034;2024-01-30T15:17:35;16.75;;;10.18;;
75626;SDS011;67372;49.404;11.034;2024-01-30T15:35:45;20.38;;;10.00;;
75626;SDS011;67372;49.404;11.034;2024-01-30T15:38:12;23.98;;;11.77;;
75626;SDS011;67372;49.404;11.034;2024-01-30T15:40:39;18.08;;;9.98;;
75626;SDS011;67372;49.404;11.034;2024-01-30T15:43:05;16.80;;;9.52;;
75626;SDS011;67372;49.404;11.034;2024-01-30T15:45:31;18.30;;;10.05;;
75626;SDS011;67372;49.404;11.034;2024-01-30T15:47:58;18.73;;;9.93;;
75626;SDS011;67372;49.404;11.034;2024-01-30T15:50:24;15.63;;;10.13;;
75626;SDS011;67372;49.404;11.034;2024-01-30T15:52:51;17.33;;;9.73;;
75626;SDS011;67372;49.404;11.034;2024-01-30T15:55:17;18.23;;;9.68;;
75626;SDS011;67372;49.404;11.034;2024-01-30T15:57:44;21.40;;;10.57;;
75626;SDS011;67372;49.404;11.034;2024-01-30T16:00:11;18.58;;;10.50;;
75626;SDS011;67372;49.404;11.034;2024-01-30T16:02:38;22.27;;;11.57;;
75626;SDS011;67372;49.404;11.034;2024-01-30T16:05:04;20.67;;;10.77;;
75626;SDS011;67372;49.404;11.034;2024-01-30T16:07:31;17.77;;;10.32;;
75626;SDS011;67372;49.404;11.034;2024-01-30T16:09:58;19.20;;;10.52;;
75626;SDS011;67372;49.404;11.034;2024-01-30T16:12:24;16.98;;;10.05;;
75626;SDS011;67372;49.404;11.034;2024-01-30T16:14:50;19.50;;;11.40;;
75626;SDS011;67372;49.404;11.034;2024-01-30T16:17:17;19.98;;;11.52;;
75626;SDS011;67372;49.404;11.034;2024-01-30T16:19:43;16.83;;;10.35;;
75626;SDS011;67372;49.404;11.034;2024-01-30T16:27:26;17.52;;;11.18;;
75626;SDS011;67372;49.404;11.034;2024-01-30T16:29:53;20.00;;;11.75;;
75626;SDS011;67372;49.404;11.034;2024-01-30T16:32:19;25.67;;;13.02;;
75626;SDS011;67372;49.404;11.034;2024-01-30T16:34:46;20.90;;;12.18;;
75626;SDS011;67372;49.404;11.034;2024-01-30T16:37:12;39.25;;;20.75;;
75626;SDS011;67372;49.404;11.034;2024-01-30T16:39:39;42.22;;;21.05;;
75626;SDS011;67372;49.404;11.034;2024-01-30T18:09:08;24.73;;;12.70;;
75626;SDS011;67372;49.404;11.034;2024-01-30T18:54:39;25.00;;;11.90;;
75626;SDS011;67372;49.404;11.034;2024-01-30T20:09:15;24.40;;;12.50;;
75626;SDS011;67372;49.404;11.034;2024-01-30T20:11:42;23.15;;;12.80;;
75626;SDS011;67372;49.404;11.034;2024-01-30T20:14:08;22.83;;;11.88;;
75626;SDS011;67372;49.404;11.034;2024-01-30T20:16:38;24.85;;;13.45;;
75626;SDS011;67372;49.404;11.034;2024-01-30T20:19:06;25.02;;;12.30;;
75626;SDS011;67372;49.404;11.034;2024-01-30T20:21:36;26.50;;;14.02;;
75626;SDS011;67372;49.404;11.034;2024-01-30T20:24:03;33.10;;;14.60;;
75626;SDS011;67372;49.404;11.034;2024-01-30T20:26:30;28.58;;;14.10;;
75626;SDS011;67372;49.404;11.034;2024-01-30T20:28:58;24.95;;;13.25;;
75626;SDS011;67372;49.404;11.034;2024-01-30T20:31:25;23.30;;;12.73;;
75626;SDS011;67372;49.404;11.034;2024-01-30T20:33:52;23.35;;;11.95;;
75626;SDS011;67372;49.404;11.034;2024-01-30T20:36:18;28.90;;;14.10;;
75626;SDS011;67372;49.404;11.034;2024-01-30T20:38:45;28.45;;;14.05;;
75626;SDS011;67372;49.404;11.034;2024-01-30T20:41:12;27.67;;;13.32;;
75626;SDS011;67372;49.404;11.034;2024-01-30T20:43:38;27.88;;;12.55;;
75626;SDS011;67372;49.404;11.034;2024-01-30T20:46:05;25.95;;;13.32;;
75626;SDS011;67372;49.404;11.034;2024-01-30T20:48:32;26.23;;;13.40;;
75626;SDS011;67372;49.404;11.034;2024-01-30T20:51:00;23.25;;;13.52;;
75626;SDS011;67372;49.404;11.034;2024-01-30T20:53:26;27.38;;;14.60;;
75626;SDS011;67372;49.404;11.034;2024-01-30T20:55:53;25.38;;;13.45;;
75626;SDS011;67372;49.404;11.034;2024-01-30T20:58:19;22.52;;;11.82;;
75626;SDS011;67372;49.404;11.034;2024-01-30T21:00:45;21.75;;;11.63;;
75626;SDS011;67372;49.404;11.034;2024-01-30T21:03:12;22.65;;;12.65;;
75626;SDS011;67372;49.404;11.034;2024-01-30T21:05:38;22.55;;;13.07;;
75626;SDS011;67372;49.404;11.034;2024-01-30T21:08:05;26.15;;;12.90;;
75626;SDS011;67372;49.404;11.034;2024-01-30T21:10:32;22.67;;;12.32;;
75626;SDS011;67372;49.404;11.034;2024-01-30T21:12:58;22.40;;;12.65;;
75626;SDS011;67372;49.404;11.034;2024-01-30T21:15:25;25.08;;;13.05;;
75626;SDS011;67372;49.404;11.034;2024-01-30T21:17:51;23.75;;;12.55;;
75626;SDS011;67372;49.404;11.034;2024-01-30T21:20:18;24.83;;;13.02;;
75626;SDS011;67372;49.404;11.034;2024-01-30T21:22:45;26.33;;;13.20;;
75626;SDS011;67372;49.404;11.034;2024-01-30T21:25:12;28.15;;;15.30;;
75626;SDS011;67372;49.404;11.034;2024-01-30T21:27:39;28.42;;;14.95;;
75626;SDS011;67372;49.404;11.034;2024-01-30T21:30:05;28.08;;;13.77;;
75626;SDS011;67372;49.404;11.034;2024-01-30T21:32:32;24.35;;;13.27;;
75626;SDS011;67372;49.404;11.034;2024-01-30T21:34:59;23.75;;;13.30;;
75626;SDS011;67372;49.404;11.034;2024-01-30T21:37:25;25.95;;;13.52;;
75626;SDS011;67372;49.404;11.034;2024-01-30T21:39:52;25.17;;;12.40;;
75626;SDS011;67372;49.404;11.034;2024-01-30T21:42:18;25.90;;;13.63;;
75626;SDS011;67372;49.404;11.034;2024-01-30T21:44:45;24.40;;;13.27;;
75626;SDS011;67372;49.404;11.034;2024-01-30T21:47:12;24.30;;;13.30;;
75626;SDS011;67372;49.404;11.034;2024-01-30T21:49:38;24.88;;;12.73;;
75626;SDS011;67372;49.404;11.034;2024-01-30T21:52:05;28.58;;;13.98;;
75626;SDS011;67372;49.404;11.034;2024-01-30T21:54:32;24.75;;;13.73;;
75626;SDS011;67372;49.404;11.034;2024-01-30T21:56:58;24.02;;;12.75;;
75626;SDS011;67372;49.404;11.034;2024-01-30T21:59:25;27.13;;;13.18;;
75626;SDS011;67372;49.404;11.034;2024-01-30T22:01:51;23.23;;;12.65;;
75626;SDS011;67372;49.404;11.034;2024-01-30T22:04:18;23.15;;;12.70;;
75626;SDS011;67372;49.404;11.034;2024-01-30T22:06:44;20.95;;;12.75;;
75626;SDS011;67372;49.404;11.034;2024-01-30T22:09:10;23.98;;;12.43;;
75626;SDS011;67372;49.404;11.034;2024-01-30T22:11:37;21.00;;;12.05;;
75626;SDS011;67372;49.404;11.034;2024-01-30T22:14:03;22.10;;;11.80;;
75626;SDS011;67372;49.404;11.034;2024-01-30T22:16:30;22.48;;;12.57;;
75626;SDS011;67372;49.404;11.034;2024-01-30T22:18:56;26.00;;;12.55;;
75626;SDS011;67372;49.404;11.034;2024-01-30T22:21:23;24.67;;;13.02;;
75626;SDS011;67372;49.404;11.034;2024-01-30T22:23:51;22.23;;;13.13;;
75626;SDS011;67372;49.404;11.034;2024-01-30T22:26:17;20.25;;;11.75;;
75626;SDS011;67372;49.404;11.034;2024-01-30T22:28:44;24.48;;;12.25;;
75626;SDS011;67372;49.404;11.034;2024-01-30T22:31:11;26.70;;;12.30;;
75626;SDS011;67372;49.404;11.034;2024-01-30T22:33:37;23.63;;;11.93;;
75626;SDS011;67372;49.404;11.034;2024-01-30T22:36:04;22.55;;;12.55;;
75626;SDS011;67372;49.404;11.034;2024-01-30T22:38:31;23.40;;;13.00;;
75626;SDS011;67372;49.404;11.034;2024-01-30T22:40:57;21.95;;;12.63;;
75626;SDS011;67372;49.404;11.034;2024-01-30T22:43:23;20.85;;;11.05;;
75626;SDS011;67372;49.404;11.034;2024-01-30T22:45:50;20.42;;;11.65;;
75626;SDS011;67372;49.404;11.034;2024-01-30T22:48:16;21.98;;;11.07;;
75626;SDS011;67372;49.404;11.034;2024-01-30T22:50:43;19.17;;;10.73;;
75626;SDS011;67372;49.404;11.034;2024-01-30T22:53:10;24.05;;;12.07;;
75626;SDS011;67372;49.404;11.034;2024-01-30T22:55:37;17.10;;;11.02;;
75626;SDS011;67372;49.404;11.034;2024-01-30T22:58:03;24.27;;;12.55;;
75626;SDS011;67372;49.404;11.034;2024-01-30T23:00:30;21.23;;;11.68;;
75626;SDS011;67372;49.404;11.034;2024-01-30T23:02:56;22.02;;;12.18;;
75626;SDS011;67372;49.404;11.034;2024-01-30T23:05:23;22.08;;;12.30;;
75626;SDS011;67372;49.404;11.034;2024-01-30T23:07:50;21.60;;;11.38;;
75626;SDS011;67372;49.404;11.034;2024-01-30T23:10:16;22.98;;;11.43;;
75626;SDS011;67372;49.404;11.034;2024-01-30T23:12:43;21.17;;;11.43;;
75626;SDS011;67372;49.404;11.034;2024-01-30T23:15:09;22.65;;;11.98;;
75626;SDS011;67372;49.404;11.034;2024-01-30T23:17:39;23.15;;;11.15;;